Aviation Digital Data Service (ADDS)

Output produced by TAFs form (2228 UTC 30 May 2015)
found at http://www.aviationweather.gov/adds/tafs/
 
KMDT 302129Z 3021/3118 19010G20KT P6SM VCSH BKN060 
     FM310200 18009KT P6SM BKN050 
     FM310600 15007KT 5SM BR BKN070 
     FM311500 25005KT 6SM HZ BKN250